Time;durP1;ratioP1;P1;durP2;ratioP2;P2;SDS_P1;SDS_P2;PMS_P1;PMS_P2;Temp;Humidity;BMP_temperature;BMP_pressure;BME280_temperature;BME280_humidity;BME280_pressure;Samples;Min_cycle;Max_cycle;Signal;HPM_P1;HPM_P2
2022/10/12 00:01:08;;;;;;;315.97;145.67;;;;;;;;;;4966330;28;20862;-54
2022/10/12 00:03:35;;;;;;;314.90;146.17;;;;;;;;;;4970837;28;20242;-54
2022/10/12 00:06:06;;;;;;;306.70;140.37;;;;;;;;;;4970745;28;20671;-54
2022/10/12 00:08:32;;;;;;;305.03;138.43;;;;;;;;;;4962887;28;20345;-54
2022/10/12 00:10:58;;;;;;;309.73;143.60;;;;;;;;;;4997969;28;20210;-54
2022/10/12 00:13:25;;;;;;;315.97;144.30;;;;;;;;;;4968954;28;20221;-54
2022/10/12 00:15:51;;;;;;;312.23;143.03;;;;;;;;;;4965774;28;20210;-54
2022/10/12 00:18:16;;;;;;;325.57;153.17;;;;;;;;;;4963683;28;20710;-54
2022/10/12 00:20:42;;;;;;;296.37;136.57;;;;;;;;;;4971440;28;20588;-54
2022/10/12 00:23:08;;;;;;;317.37;147.97;;;;;;;;;;4969166;28;20229;-54
2022/10/12 00:25:38;;;;;;;344.73;165.07;;;;;;;;;;4967699;28;20582;-54
2022/10/12 00:28:04;;;;;;;326.70;155.53;;;;;;;;;;4963320;28;20714;-54
2022/10/12 00:30:30;;;;;;;318.63;149.37;;;;;;;;;;4967097;28;20228;-54
2022/10/12 00:32:57;;;;;;;282.73;129.83;;;;;;;;;;4967008;28;20233;-54
2022/10/12 00:35:23;;;;;;;297.83;136.80;;;;;;;;;;4968271;28;20217;-54
2022/10/12 00:37:53;;;;;;;300.20;139.23;;;;;;;;;;4970608;28;20217;-54
2022/10/12 00:40:19;;;;;;;304.83;141.67;;;;;;;;;;4973888;28;20642;-54
2022/10/12 00:42:47;;;;;;;301.93;141.37;;;;;;;;;;4976304;28;20186;-54
2022/10/12 00:45:13;;;;;;;339.87;160.77;;;;;;;;;;4971064;28;20222;-54
2022/10/12 00:47:41;;;;;;;312.07;146.13;;;;;;;;;;4980703;28;20221;-54
2022/10/12 00:50:15;;;;;;;311.37;146.93;;;;;;;;;;4986544;28;21273;-54
2022/10/12 00:52:43;;;;;;;309.90;142.97;;;;;;;;;;4986257;28;20219;-54
2022/10/12 00:55:11;;;;;;;294.30;138.30;;;;;;;;;;4987813;28;20319;-54
2022/10/12 00:57:36;;;;;;;307.43;142.20;;;;;;;;;;4985727;28;20189;-54
2022/10/12 01:00:06;;;;;;;309.70;142.53;;;;;;;;;;4982924;28;20302;-54
2022/10/12 01:02:32;;;;;;;294.13;134.53;;;;;;;;;;4994599;28;20205;-54
2022/10/12 01:04:59;;;;;;;312.37;145.50;;;;;;;;;;4986986;28;20225;-54
2022/10/12 01:07:24;;;;;;;313.13;145.87;;;;;;;;;;4996157;28;20727;-54
2022/10/12 01:09:50;;;;;;;322.27;152.13;;;;;;;;;;4996931;28;20192;-54
2022/10/12 01:12:16;;;;;;;298.00;137.83;;;;;;;;;;4993166;28;20223;-54
2022/10/12 01:14:42;;;;;;;320.13;150.33;;;;;;;;;;4988453;28;20225;-54
2022/10/12 01:17:14;;;;;;;297.77;138.83;;;;;;;;;;4987366;28;20279;-54
2022/10/12 01:20:09;;;;;;;305.97;140.63;;;;;;;;;;4994021;28;20301;-54
2022/10/12 01:22:44;;;;;;;302.27;137.70;;;;;;;;;;4996654;28;20278;-54
2022/10/12 01:25:23;;;;;;;317.00;147.63;;;;;;;;;;4994469;28;20695;-54
2022/10/12 01:27:51;;;;;;;304.40;141.57;;;;;;;;;;4971526;28;20204;-54
2022/10/12 01:30:21;;;;;;;340.93;164.40;;;;;;;;;;4969960;28;20957;-54
2022/10/12 01:32:54;;;;;;;327.00;151.80;;;;;;;;;;4970886;28;20236;-54
2022/10/12 01:35:30;;;;;;;318.40;145.57;;;;;;;;;;4970089;28;20228;-54
2022/10/12 01:37:56;;;;;;;302.57;135.67;;;;;;;;;;4973152;28;20237;-54
2022/10/12 01:40:26;;;;;;;318.47;148.07;;;;;;;;;;4969775;28;20229;-54
2022/10/12 01:42:53;;;;;;;343.80;163.37;;;;;;;;;;4969768;28;20702;-54
2022/10/12 01:45:19;;;;;;;315.60;147.53;;;;;;;;;;4964326;28;20573;-54
2022/10/12 01:47:47;;;;;;;335.87;156.97;;;;;;;;;;4967786;28;20222;-54
2022/10/12 01:50:14;;;;;;;322.77;150.47;;;;;;;;;;4969379;28;20429;-54
2022/10/12 01:52:48;;;;;;;298.50;137.37;;;;;;;;;;4972759;28;20589;-54
2022/10/12 01:55:33;;;;;;;300.50;138.23;;;;;;;;;;4978372;28;21093;-54
2022/10/12 01:58:06;;;;;;;302.83;139.83;;;;;;;;;;4967600;28;20221;-54
2022/10/12 02:00:38;;;;;;;310.03;143.00;;;;;;;;;;4965649;28;20223;-55
2022/10/12 02:03:19;;;;;;;318.20;147.53;;;;;;;;;;4972029;28;21512;-54
2022/10/12 02:05:51;;;;;;;325.07;150.07;;;;;;;;;;4969034;28;20320;-54
2022/10/12 02:08:20;;;;;;;302.83;138.30;;;;;;;;;;4974384;28;20213;-54
2022/10/12 02:10:50;;;;;;;310.27;145.27;;;;;;;;;;4964392;28;20217;-54
2022/10/12 02:13:18;;;;;;;305.97;139.90;;;;;;;;;;4968444;28;20220;-54
2022/10/12 02:15:44;;;;;;;300.90;139.53;;;;;;;;;;4969813;28;20295;-54
2022/10/12 02:18:12;;;;;;;310.20;142.37;;;;;;;;;;4966867;28;20856;-54
2022/10/12 02:20:39;;;;;;;321.43;149.77;;;;;;;;;;4967208;28;20316;-54
2022/10/12 02:23:06;;;;;;;322.73;149.27;;;;;;;;;;4969050;28;20313;-54
2022/10/12 02:25:33;;;;;;;330.80;154.07;;;;;;;;;;4966753;28;20237;-54
2022/10/12 02:28:03;;;;;;;330.37;156.87;;;;;;;;;;4966713;28;20768;-54
2022/10/12 02:30:32;;;;;;;294.50;134.37;;;;;;;;;;4971782;28;20593;-54
2022/10/12 02:33:00;;;;;;;292.07;133.80;;;;;;;;;;4976716;28;20220;-54
2022/10/12 02:35:29;;;;;;;312.07;144.10;;;;;;;;;;4968958;28;20718;-54
2022/10/12 02:38:06;;;;;;;341.73;161.87;;;;;;;;;;4968248;28;20575;-54
2022/10/12 02:40:43;;;;;;;314.00;145.33;;;;;;;;;;4966781;28;20229;-54
2022/10/12 02:43:20;;;;;;;315.67;145.53;;;;;;;;;;4968348;28;20269;-54
2022/10/12 02:45:47;;;;;;;329.30;150.80;;;;;;;;;;4966114;28;20221;-55
2022/10/12 02:48:17;;;;;;;308.70;142.10;;;;;;;;;;4969884;28;20225;-54
2022/10/12 02:50:43;;;;;;;307.03;141.70;;;;;;;;;;4974679;28;20797;-54
2022/10/12 02:53:11;;;;;;;309.30;139.43;;;;;;;;;;4975549;28;20214;-54
2022/10/12 02:55:38;;;;;;;311.07;142.97;;;;;;;;;;4972765;28;20760;-54
2022/10/12 02:58:04;;;;;;;296.67;133.43;;;;;;;;;;4977037;28;20470;-54
2022/10/12 03:00:33;;;;;;;301.70;136.03;;;;;;;;;;4968202;28;20210;-54
2022/10/12 03:02:59;;;;;;;314.27;144.13;;;;;;;;;;4968714;28;20646;-54
2022/10/12 03:05:25;;;;;;;328.47;152.80;;;;;;;;;;4969376;28;20224;-54
2022/10/12 03:07:51;;;;;;;319.83;148.60;;;;;;;;;;4969043;28;20222;-54
2022/10/12 03:10:17;;;;;;;330.80;152.73;;;;;;;;;;4966964;28;20216;-54
2022/10/12 03:12:43;;;;;;;310.50;144.10;;;;;;;;;;4965345;28;20189;-54
2022/10/12 03:15:09;;;;;;;309.87;142.63;;;;;;;;;;4964263;28;20221;-54
2022/10/12 03:17:35;;;;;;;306.67;139.77;;;;;;;;;;4963444;28;20794;-54
2022/10/12 03:20:01;;;;;;;294.63;131.77;;;;;;;;;;4970390;28;20365;-54
2022/10/12 03:22:27;;;;;;;327.77;152.77;;;;;;;;;;4966549;28;20218;-54
2022/10/12 03:24:53;;;;;;;289.30;129.33;;;;;;;;;;4966406;28;20280;-55
2022/10/12 03:27:19;;;;;;;308.40;140.53;;;;;;;;;;4961887;28;20690;-54
2022/10/12 03:29:45;;;;;;;299.83;133.70;;;;;;;;;;4968309;28;20312;-54
2022/10/12 03:32:10;;;;;;;328.73;150.63;;;;;;;;;;4967370;28;20214;-55
2022/10/12 03:34:36;;;;;;;317.90;145.13;;;;;;;;;;4967937;28;20237;-54
2022/10/12 03:37:02;;;;;;;311.57;142.27;;;;;;;;;;4964459;28;20677;-54
2022/10/12 03:39:28;;;;;;;301.40;137.13;;;;;;;;;;4963862;28;20578;-54
2022/10/12 03:41:54;;;;;;;303.13;135.43;;;;;;;;;;4967402;28;20217;-54
2022/10/12 03:44:20;;;;;;;318.77;145.60;;;;;;;;;;4962444;28;20636;-54
2022/10/12 03:46:46;;;;;;;366.77;174.00;;;;;;;;;;4968508;28;20257;-54
2022/10/12 03:49:12;;;;;;;318.13;145.33;;;;;;;;;;4967337;28;20320;-54
2022/10/12 03:51:38;;;;;;;294.93;132.57;;;;;;;;;;4969831;28;23124;-54
2022/10/12 03:54:04;;;;;;;320.87;148.33;;;;;;;;;;4966836;28;20232;-54
2022/10/12 03:56:30;;;;;;;298.80;135.20;;;;;;;;;;4967225;28;20217;-54
2022/10/12 03:58:56;;;;;;;307.37;140.37;;;;;;;;;;4975083;28;20249;-55
2022/10/12 04:01:22;;;;;;;297.47;133.93;;;;;;;;;;4966892;28;20935;-54
2022/10/12 04:03:47;;;;;;;304.10;139.97;;;;;;;;;;4962448;28;20331;-54
2022/10/12 04:06:13;;;;;;;305.83;137.77;;;;;;;;;;4962936;28;21930;-54
2022/10/12 04:08:39;;;;;;;334.43;153.27;;;;;;;;;;4993629;28;20252;-54
2022/10/12 04:11:05;;;;;;;303.10;136.53;;;;;;;;;;4969551;28;20292;-54
2022/10/12 04:13:32;;;;;;;337.97;155.93;;;;;;;;;;4963757;28;20219;-54
2022/10/12 04:16:05;;;;;;;310.40;140.53;;;;;;;;;;4961368;28;20213;-54
2022/10/12 04:18:31;;;;;;;303.17;138.40;;;;;;;;;;4965940;28;20265;-54
2022/10/12 04:20:57;;;;;;;335.10;155.27;;;;;;;;;;4968549;28;21761;-54
2022/10/12 04:23:23;;;;;;;311.20;141.27;;;;;;;;;;4959162;28;20222;-54
2022/10/12 04:25:49;;;;;;;288.97;131.77;;;;;;;;;;4966263;28;20230;-55
2022/10/12 04:28:15;;;;;;;319.93;147.07;;;;;;;;;;4963596;28;20213;-55
2022/10/12 04:30:41;;;;;;;306.43;141.43;;;;;;;;;;4965776;28;20185;-55
2022/10/12 04:33:07;;;;;;;314.20;143.10;;;;;;;;;;4963299;28;20693;-55
2022/10/12 04:35:33;;;;;;;313.73;143.60;;;;;;;;;;4964293;28;20217;-55
2022/10/12 04:37:58;;;;;;;324.43;149.77;;;;;;;;;;4966729;28;20381;-55
2022/10/12 04:40:24;;;;;;;298.13;134.87;;;;;;;;;;4964870;28;20275;-55
2022/10/12 04:42:51;;;;;;;302.00;138.53;;;;;;;;;;4961692;28;20193;-55
2022/10/12 04:45:16;;;;;;;300.60;137.63;;;;;;;;;;4969052;28;20265;-55
2022/10/12 04:47:42;;;;;;;288.00;129.23;;;;;;;;;;4971727;28;20838;-55
2022/10/12 04:50:08;;;;;;;297.33;133.87;;;;;;;;;;4966420;28;20218;-55
2022/10/12 04:52:34;;;;;;;307.77;140.67;;;;;;;;;;4964385;28;20210;-55
2022/10/12 04:55:00;;;;;;;313.40;145.23;;;;;;;;;;4967913;28;20487;-55
2022/10/12 04:57:26;;;;;;;285.87;128.73;;;;;;;;;;4970765;28;20428;-55
2022/10/12 04:59:52;;;;;;;298.37;134.10;;;;;;;;;;4964792;28;20229;-55
2022/10/12 05:02:18;;;;;;;322.90;149.13;;;;;;;;;;4965188;28;20285;-55
2022/10/12 05:04:44;;;;;;;301.23;138.47;;;;;;;;;;4965339;28;20309;-55
2022/10/12 05:07:10;;;;;;;328.33;152.93;;;;;;;;;;4965460;28;20222;-55
2022/10/12 05:09:36;;;;;;;293.43;136.40;;;;;;;;;;4970660;28;20716;-55
2022/10/12 05:12:02;;;;;;;311.33;143.67;;;;;;;;;;4968624;28;20221;-55
2022/10/12 05:14:28;;;;;;;278.47;126.10;;;;;;;;;;4967250;28;20760;-56
2022/10/12 05:16:54;;;;;;;281.33;126.40;;;;;;;;;;4980925;28;20279;-56
2022/10/12 05:19:19;;;;;;;278.87;126.10;;;;;;;;;;4976004;28;20310;-56
2022/10/12 05:21:45;;;;;;;265.73;123.10;;;;;;;;;;4978284;28;20272;-56
2022/10/12 05:24:11;;;;;;;268.43;123.53;;;;;;;;;;4980371;28;20337;-57
2022/10/12 05:26:37;;;;;;;273.57;125.50;;;;;;;;;;4983427;28;20229;-56
2022/10/12 05:29:03;;;;;;;318.83;153.13;;;;;;;;;;4977666;28;20616;-55
2022/10/12 05:31:29;;;;;;;288.23;134.53;;;;;;;;;;5011471;28;20600;-56
2022/10/12 05:33:55;;;;;;;272.70;126.83;;;;;;;;;;4984766;28;20190;-55
2022/10/12 05:36:21;;;;;;;275.73;127.70;;;;;;;;;;4979871;28;20677;-56
2022/10/12 05:38:47;;;;;;;266.43;124.17;;;;;;;;;;4978529;28;20264;-56
2022/10/12 05:41:14;;;;;;;277.47;130.43;;;;;;;;;;4978958;28;20238;-55
2022/10/12 05:43:39;;;;;;;268.00;125.73;;;;;;;;;;4982937;28;20212;-56
2022/10/12 05:46:05;;;;;;;272.40;128.13;;;;;;;;;;4985333;28;20222;-56
2022/10/12 05:48:32;;;;;;;262.00;123.07;;;;;;;;;;4985151;28;20182;-56
2022/10/12 05:50:58;;;;;;;252.83;118.03;;;;;;;;;;4980794;28;20214;-56
2022/10/12 05:53:24;;;;;;;268.03;126.17;;;;;;;;;;4981604;28;20280;-55
2022/10/12 05:55:53;;;;;;;259.50;122.50;;;;;;;;;;4980826;28;20324;-56
2022/10/12 05:58:19;;;;;;;254.90;117.40;;;;;;;;;;4982106;28;20221;-56
2022/10/12 06:00:45;;;;;;;262.40;122.00;;;;;;;;;;4989450;28;20206;-56
2022/10/12 06:03:11;;;;;;;268.63;126.07;;;;;;;;;;4985559;28;20190;-55
2022/10/12 06:05:37;;;;;;;282.73;132.60;;;;;;;;;;4976415;28;20586;-55
2022/10/12 06:08:03;;;;;;;290.10;132.93;;;;;;;;;;4957664;28;20228;-55
2022/10/12 06:10:29;;;;;;;303.97;141.80;;;;;;;;;;4983246;28;20205;-55
2022/10/12 06:12:55;;;;;;;281.67;129.87;;;;;;;;;;4994262;28;20260;-55
2022/10/12 06:15:21;;;;;;;295.67;139.23;;;;;;;;;;4995161;28;20232;-55
2022/10/12 06:17:47;;;;;;;278.60;129.00;;;;;;;;;;4994524;28;20337;-55
2022/10/12 06:20:13;;;;;;;253.80;117.90;;;;;;;;;;5004489;28;20229;-55
2022/10/12 06:22:38;;;;;;;271.40;125.93;;;;;;;;;;5002634;28;20278;-55
2022/10/12 06:25:05;;;;;;;301.67;142.10;;;;;;;;;;4997756;28;20699;-55
2022/10/12 06:27:31;;;;;;;285.37;130.07;;;;;;;;;;4997170;28;20192;-55
2022/10/12 06:29:57;;;;;;;265.97;122.83;;;;;;;;;;5002053;28;20213;-55
2022/10/12 06:32:22;;;;;;;258.37;117.67;;;;;;;;;;5009733;28;20232;-55
2022/10/12 06:34:48;;;;;;;277.20;129.53;;;;;;;;;;5009590;28;20216;-55
2022/10/12 06:37:14;;;;;;;257.07;120.07;;;;;;;;;;5007376;28;20689;-55
2022/10/12 06:39:40;;;;;;;257.17;118.27;;;;;;;;;;5035837;28;20283;-56
2022/10/12 06:42:07;;;;;;;260.37;120.10;;;;;;;;;;4985484;28;20201;-55
2022/10/12 06:44:33;;;;;;;268.87;124.73;;;;;;;;;;4991289;28;20729;-55
2022/10/12 06:46:59;;;;;;;262.80;121.33;;;;;;;;;;4974133;28;20305;-55
2022/10/12 06:49:25;;;;;;;236.67;110.53;;;;;;;;;;4990972;28;20217;-55
2022/10/12 06:51:51;;;;;;;254.87;118.03;;;;;;;;;;4995550;28;20632;-55
2022/10/12 06:54:17;;;;;;;262.43;121.00;;;;;;;;;;4991436;28;20178;-55
2022/10/12 06:56:43;;;;;;;260.73;119.63;;;;;;;;;;4990186;28;20237;-55
2022/10/12 06:59:10;;;;;;;260.83;119.87;;;;;;;;;;4983252;28;20225;-55
2022/10/12 07:01:36;;;;;;;261.27;120.17;;;;;;;;;;4977477;28;20202;-55
2022/10/12 07:04:02;;;;;;;268.60;124.10;;;;;;;;;;4992577;28;20224;-55
2022/10/12 07:06:28;;;;;;;261.33;121.47;;;;;;;;;;4993469;28;20217;-55
2022/10/12 07:08:54;;;;;;;249.37;115.87;;;;;;;;;;4979498;28;20237;-55
2022/10/12 07:11:20;;;;;;;275.80;127.30;;;;;;;;;;4992576;28;20205;-55
2022/10/12 07:13:46;;;;;;;259.20;118.80;;;;;;;;;;4984391;28;20221;-55
2022/10/12 07:16:12;;;;;;;268.47;121.93;;;;;;;;;;4988374;28;20698;-55
2022/10/12 07:18:39;;;;;;;277.23;125.27;;;;;;;;;;5003889;28;20208;-55
2022/10/12 07:21:05;;;;;;;279.30;124.83;;;;;;;;;;5001885;28;20214;-55
2022/10/12 07:23:32;;;;;;;295.50;134.83;;;;;;;;;;4992243;28;20214;-50
2022/10/12 07:25:58;;;;;;;288.10;133.53;;;;;;;;;;4988551;28;20228;-54
2022/10/12 07:28:24;;;;;;;289.00;131.27;;;;;;;;;;4984308;28;20288;-54
2022/10/12 07:30:51;;;;;;;354.57;160.90;;;;;;;;;;4982922;28;20839;-55
2022/10/12 07:33:17;;;;;;;347.63;154.47;;;;;;;;;;4979043;28;20240;-54
2022/10/12 07:35:43;;;;;;;335.10;146.50;;;;;;;;;;4988950;28;20248;-55
2022/10/12 07:38:09;;;;;;;320.50;143.57;;;;;;;;;;4989710;28;20234;-55
2022/10/12 07:40:36;;;;;;;326.00;143.47;;;;;;;;;;4995178;28;20283;-55
2022/10/12 07:43:02;;;;;;;279.13;125.20;;;;;;;;;;5018408;28;20229;-55
2022/10/12 07:45:28;;;;;;;290.43;132.47;;;;;;;;;;4996691;28;20308;-55
2022/10/12 07:47:55;;;;;;;287.27;130.70;;;;;;;;;;4994427;28;20224;-55
2022/10/12 07:50:21;;;;;;;290.90;129.73;;;;;;;;;;4990219;28;20213;-55
2022/10/12 07:52:47;;;;;;;287.03;130.10;;;;;;;;;;4990131;28;20217;-55
2022/10/12 07:55:13;;;;;;;308.87;143.70;;;;;;;;;;4987734;28;20631;-55
2022/10/12 07:57:38;;;;;;;281.23;127.03;;;;;;;;;;4994786;28;20180;-55
2022/10/12 08:00:05;;;;;;;292.70;131.17;;;;;;;;;;5009824;28;20229;-55
2022/10/12 08:02:31;;;;;;;295.30;131.30;;;;;;;;;;5009599;28;20208;-55
2022/10/12 08:04:56;;;;;;;296.00;133.20;;;;;;;;;;5009479;28;20228;-55
2022/10/12 08:07:22;;;;;;;289.57;131.00;;;;;;;;;;5009029;28;20219;-55
2022/10/12 08:09:48;;;;;;;287.67;128.43;;;;;;;;;;5007467;28;20188;-55
2022/10/12 08:12:14;;;;;;;278.37;124.10;;;;;;;;;;4990421;28;20182;-55
2022/10/12 08:14:40;;;;;;;299.13;132.97;;;;;;;;;;4989706;28;20248;-55
2022/10/12 08:17:07;;;;;;;301.80;133.97;;;;;;;;;;4990002;28;20237;-55
2022/10/12 08:19:35;;;;;;;294.30;130.17;;;;;;;;;;4989618;28;20221;-55
2022/10/12 08:22:01;;;;;;;272.30;120.50;;;;;;;;;;4990101;28;20297;-55
2022/10/12 08:24:27;;;;;;;296.70;132.80;;;;;;;;;;4989844;28;20256;-55
2022/10/12 08:26:53;;;;;;;308.17;137.83;;;;;;;;;;4989759;28;20450;-55
2022/10/12 08:29:19;;;;;;;294.00;131.17;;;;;;;;;;4990208;28;20694;-55
2022/10/12 08:31:45;;;;;;;298.97;133.30;;;;;;;;;;4989601;28;20217;-55
2022/10/12 08:34:11;;;;;;;303.97;136.73;;;;;;;;;;4991906;28;20721;-55
2022/10/12 08:36:37;;;;;;;302.63;132.97;;;;;;;;;;5021231;28;20280;-55
2022/10/12 08:39:05;;;;;;;295.70;130.57;;;;;;;;;;4988610;28;20228;-55
2022/10/12 08:41:42;;;;;;;302.33;133.80;;;;;;;;;;4996661;28;20232;-55
2022/10/12 08:44:35;;;;;;;297.40;132.23;;;;;;;;;;4986960;28;20292;-55
2022/10/12 08:47:09;;;;;;;298.03;133.50;;;;;;;;;;5011570;28;20216;-55
2022/10/12 08:49:38;;;;;;;321.37;145.27;;;;;;;;;;4991616;28;20222;-53
2022/10/12 08:52:06;;;;;;;316.20;145.23;;;;;;;;;;4985201;28;20303;-52
2022/10/12 08:54:37;;;;;;;328.27;148.90;;;;;;;;;;4993207;28;20193;-53
2022/10/12 08:57:03;;;;;;;332.27;155.50;;;;;;;;;;4982813;28;20252;-52
2022/10/12 08:59:29;;;;;;;307.40;139.73;;;;;;;;;;4993485;28;20347;-55
2022/10/12 09:01:58;;;;;;;309.70;143.57;;;;;;;;;;4989008;28;20654;-55
2022/10/12 09:04:33;;;;;;;299.90;139.37;;;;;;;;;;4988885;28;20221;-55
2022/10/12 09:07:01;;;;;;;307.57;145.17;;;;;;;;;;4989004;28;20226;-55
2022/10/12 09:09:27;;;;;;;306.47;141.33;;;;;;;;;;4999996;28;20192;-55
2022/10/12 09:12:11;;;;;;;307.70;142.70;;;;;;;;;;5026097;28;20220;-54
2022/10/12 09:14:39;;;;;;;315.83;145.67;;;;;;;;;;4991057;28;20606;-56
2022/10/12 09:17:07;;;;;;;307.00;140.57;;;;;;;;;;4990068;28;20299;-55
2022/10/12 09:19:38;;;;;;;317.40;146.90;;;;;;;;;;5007875;28;20228;-55
2022/10/12 09:22:05;;;;;;;312.03;146.20;;;;;;;;;;5010715;28;20212;-56
2022/10/12 09:24:35;;;;;;;307.23;141.77;;;;;;;;;;5010894;28;20191;-55
2022/10/12 09:27:05;;;;;;;310.17;145.93;;;;;;;;;;5004109;28;20213;-55
2022/10/12 09:29:31;;;;;;;325.07;154.07;;;;;;;;;;5017379;28;20212;-55
2022/10/12 09:32:21;;;;;;;311.13;144.17;;;;;;;;;;5020087;28;20238;-55
2022/10/12 09:34:47;;;;;;;304.70;142.70;;;;;;;;;;5001507;28;20862;-55
2022/10/12 09:37:20;;;;;;;306.87;145.07;;;;;;;;;;5006245;28;20652;-55
2022/10/12 09:39:46;;;;;;;325.63;156.83;;;;;;;;;;4997105;28;20251;-56
2022/10/12 09:42:12;;;;;;;312.40;148.13;;;;;;;;;;5001961;28;20643;-56
2022/10/12 09:44:43;;;;;;;312.60;147.60;;;;;;;;;;5000989;28;20304;-56
2022/10/12 09:47:26;;;;;;;331.50;161.10;;;;;;;;;;4993414;28;20548;-56
2022/10/12 09:49:53;;;;;;;312.93;151.27;;;;;;;;;;4996003;28;20303;-56
2022/10/12 09:52:21;;;;;;;317.83;155.33;;;;;;;;;;5004964;28;20631;-56
2022/10/12 09:54:54;;;;;;;314.97;150.77;;;;;;;;;;5026684;28;20189;-56
2022/10/12 09:57:25;;;;;;;312.87;150.07;;;;;;;;;;5011644;28;20226;-56
2022/10/12 09:59:51;;;;;;;313.20;148.60;;;;;;;;;;5005763;28;20752;-57
2022/10/12 10:02:21;;;;;;;318.80;155.13;;;;;;;;;;5003980;28;20686;-56
2022/10/12 10:04:48;;;;;;;331.40;164.03;;;;;;;;;;5002908;28;20218;-56
2022/10/12 10:07:33;;;;;;;321.70;156.97;;;;;;;;;;5008548;28;20300;-57
2022/10/12 10:10:07;;;;;;;304.93;142.20;;;;;;;;;;4999886;28;20225;-56
2022/10/12 10:12:35;;;;;;;320.00;153.67;;;;;;;;;;5001342;28;20263;-56
2022/10/12 10:15:01;;;;;;;344.67;170.33;;;;;;;;;;4975069;28;20877;-53
2022/10/12 10:17:31;;;;;;;353.77;172.23;;;;;;;;;;4976625;28;20221;-55
2022/10/12 10:19:58;;;;;;;342.93;169.00;;;;;;;;;;4976865;28;20217;-56
2022/10/12 10:22:24;;;;;;;375.53;191.13;;;;;;;;;;4968569;28;20217;-56
2022/10/12 10:24:52;;;;;;;321.37;156.53;;;;;;;;;;4971907;28;20190;-56
2022/10/12 10:27:29;;;;;;;342.90;173.70;;;;;;;;;;4982015;28;20170;-56
2022/10/12 10:30:07;;;;;;;427.20;231.10;;;;;;;;;;4949803;28;20228;-56
2022/10/12 10:32:33;;;;;;;374.90;197.87;;;;;;;;;;4990963;28;20291;-56
2022/10/12 10:35:19;;;;;;;358.07;181.47;;;;;;;;;;4973377;28;20324;-56
2022/10/12 10:37:48;;;;;;;339.90;174.67;;;;;;;;;;4979897;28;20241;-56
2022/10/12 10:40:17;;;;;;;386.17;202.40;;;;;;;;;;4980801;28;20648;-56
2022/10/12 10:42:48;;;;;;;369.73;194.20;;;;;;;;;;4972033;28;23346;-56
2022/10/12 10:45:21;;;;;;;389.97;205.53;;;;;;;;;;4972678;28;20313;-56
2022/10/12 10:47:47;;;;;;;347.20;179.37;;;;;;;;;;4979016;28;20771;-56
2022/10/12 10:50:24;;;;;;;372.53;194.00;;;;;;;;;;4979905;28;20303;-56
2022/10/12 10:53:01;;;;;;;403.53;213.43;;;;;;;;;;4962910;28;20373;-56
2022/10/12 10:55:45;;;;;;;374.53;198.53;;;;;;;;;;4977594;28;20581;-56
2022/10/12 10:58:33;;;;;;;347.07;181.20;;;;;;;;;;4974688;28;20225;-56
2022/10/12 11:01:01;;;;;;;339.63;177.13;;;;;;;;;;4987415;28;20233;-56
2022/10/12 11:03:47;;;;;;;339.80;176.77;;;;;;;;;;4972606;28;20183;-56
2022/10/12 11:06:33;;;;;;;330.47;169.47;;;;;;;;;;4980399;28;20240;-56
2022/10/12 11:09:28;;;;;;;324.17;168.47;;;;;;;;;;4982601;28;20310;-56
2022/10/12 11:12:01;;;;;;;289.03;145.03;;;;;;;;;;4983251;28;20240;-56
2022/10/12 11:14:47;;;;;;;307.37;156.40;;;;;;;;;;4997232;28;20205;-56
2022/10/12 11:17:16;;;;;;;298.73;150.50;;;;;;;;;;4996123;28;20223;-56
2022/10/12 11:19:47;;;;;;;308.13;157.67;;;;;;;;;;4992340;28;21060;-56
2022/10/12 11:22:13;;;;;;;303.33;157.33;;;;;;;;;;4998637;28;20264;-56
2022/10/12 11:24:54;;;;;;;344.30;177.87;;;;;;;;;;4979088;28;20630;-56
2022/10/12 11:27:20;;;;;;;320.93;167.90;;;;;;;;;;4977160;28;20696;-55
2022/10/12 11:29:46;;;;;;;325.30;170.93;;;;;;;;;;4968861;28;20209;-56
2022/10/12 11:32:15;;;;;;;315.17;162.93;;;;;;;;;;4984744;28;20225;-56
2022/10/12 11:35:07;;;;;;;334.43;176.93;;;;;;;;;;4981855;28;20217;-55
2022/10/12 11:37:38;;;;;;;344.67;182.20;;;;;;;;;;4980707;28;20213;-56
2022/10/12 11:40:07;;;;;;;331.57;173.93;;;;;;;;;;4981424;28;20248;-55
2022/10/12 11:42:36;;;;;;;393.33;220.63;;;;;;;;;;4982376;28;20340;-56
2022/10/12 11:45:05;;;;;;;327.40;172.67;;;;;;;;;;4977606;28;20229;-56
2022/10/12 11:47:35;;;;;;;344.13;179.60;;;;;;;;;;4984595;28;20245;-56
2022/10/12 11:50:07;;;;;;;315.23;158.70;;;;;;;;;;4988676;28;20205;-56
2022/10/12 11:52:44;;;;;;;311.13;158.67;;;;;;;;;;4986177;28;20220;-56
2022/10/12 11:55:27;;;;;;;320.13;165.57;;;;;;;;;;4985864;28;20710;-56
2022/10/12 11:57:54;;;;;;;319.27;165.67;;;;;;;;;;4992976;28;20176;-56
2022/10/12 12:00:23;;;;;;;318.27;164.03;;;;;;;;;;4989264;28;20201;-56
2022/10/12 12:03:08;;;;;;;331.63;178.80;;;;;;;;;;4991384;28;20275;-56
2022/10/12 12:05:34;;;;;;;334.03;178.03;;;;;;;;;;4986165;28;20225;-56
2022/10/12 12:08:00;;;;;;;337.10;179.23;;;;;;;;;;4990605;28;21080;-56
2022/10/12 12:10:26;;;;;;;310.80;161.67;;;;;;;;;;4984233;28;20221;-56
2022/10/12 12:13:11;;;;;;;323.97;173.97;;;;;;;;;;4968817;28;20754;-56
2022/10/12 12:15:48;;;;;;;396.33;223.80;;;;;;;;;;4963271;28;20198;-56
2022/10/12 12:18:24;;;;;;;329.67;179.57;;;;;;;;;;4968978;28;20313;-57
2022/10/12 12:21:04;;;;;;;300.30;158.80;;;;;;;;;;4962653;28;20222;-57
2022/10/12 12:23:39;;;;;;;303.77;162.87;;;;;;;;;;4969977;28;20237;-57
2022/10/12 12:26:05;;;;;;;295.80;157.73;;;;;;;;;;4970338;28;20217;-56
2022/10/12 12:28:31;;;;;;;296.83;158.27;;;;;;;;;;4970146;28;20206;-56
2022/10/12 12:31:02;;;;;;;303.27;163.37;;;;;;;;;;4987918;28;20200;-56
2022/10/12 12:33:34;;;;;;;296.00;163.03;;;;;;;;;;5002014;28;20189;-57
2022/10/12 12:36:01;;;;;;;320.20;179.73;;;;;;;;;;4974512;28;20213;-57
2022/10/12 12:38:27;;;;;;;309.57;171.00;;;;;;;;;;4969904;28;20223;-56
2022/10/12 12:40:58;;;;;;;310.80;173.20;;;;;;;;;;4971727;28;20727;-57
2022/10/12 12:43:44;;;;;;;302.20;168.87;;;;;;;;;;4974163;28;20263;-57
2022/10/12 12:46:13;;;;;;;296.30;166.97;;;;;;;;;;4968457;28;20582;-57
2022/10/12 12:48:42;;;;;;;370.03;221.93;;;;;;;;;;4980855;28;20540;-56
2022/10/12 12:51:10;;;;;;;307.60;180.07;;;;;;;;;;4972445;28;20174;-57
2022/10/12 12:53:38;;;;;;;312.83;180.93;;;;;;;;;;4978151;28;20742;-57
2022/10/12 12:56:04;;;;;;;307.47;178.30;;;;;;;;;;4975144;28;20214;-57
2022/10/12 12:58:37;;;;;;;315.70;186.17;;;;;;;;;;4971327;28;20581;-57
2022/10/12 13:01:16;;;;;;;290.83;169.20;;;;;;;;;;4976104;28;20328;-57
2022/10/12 13:03:56;;;;;;;336.90;190.53;;;;;;;;;;4970003;28;20218;-57
2022/10/12 13:06:41;;;;;;;333.13;187.70;;;;;;;;;;4977654;28;20304;-57
2022/10/12 13:09:16;;;;;;;330.87;188.87;;;;;;;;;;4995299;28;20213;-56
2022/10/12 13:11:48;;;;;;;329.50;188.40;;;;;;;;;;4998762;28;20216;-57
2022/10/12 13:14:16;;;;;;;322.47;194.03;;;;;;;;;;4995949;28;20220;-56
2022/10/12 13:16:52;;;;;;;333.10;206.23;;;;;;;;;;4997978;28;20229;-57
2022/10/12 13:19:18;;;;;;;339.70;222.60;;;;;;;;;;4995192;28;20689;-57
2022/10/12 13:21:46;;;;;;;326.00;214.50;;;;;;;;;;5001921;28;20782;-57
2022/10/12 13:24:15;;;;;;;336.23;226.80;;;;;;;;;;5006367;28;20254;-55
2022/10/12 13:26:43;;;;;;;330.27;232.83;;;;;;;;;;5006566;28;20216;-56
2022/10/12 13:29:13;;;;;;;329.23;239.30;;;;;;;;;;5001650;28;20300;-55
2022/10/12 13:31:42;;;;;;;336.98;250.02;;;;;;;;;;4996816;28;20765;-54
2022/10/12 13:34:28;;;;;;;325.73;251.38;;;;;;;;;;4992841;28;20592;-54
2022/10/12 13:37:09;;;;;;;340.95;268.35;;;;;;;;;;4996156;28;20275;-54
2022/10/12 13:39:39;;;;;;;344.65;272.95;;;;;;;;;;4982906;28;20208;-54
2022/10/12 13:42:05;;;;;;;337.95;272.08;;;;;;;;;;4980180;28;20267;-54
2022/10/12 13:44:33;;;;;;;336.30;273.75;;;;;;;;;;4996664;28;20231;-54
2022/10/12 13:47:00;;;;;;;338.38;276.48;;;;;;;;;;4991260;28;20322;-54
2022/10/12 13:49:28;;;;;;;335.57;278.30;;;;;;;;;;4996954;28;20212;-53
2022/10/12 13:51:58;;;;;;;497.60;367.88;;;;;;;;;;4990787;28;20193;-54
2022/10/12 13:54:26;;;;;;;417.60;323.92;;;;;;;;;;4992536;28;20264;-54
2022/10/12 13:56:54;;;;;;;533.90;384.80;;;;;;;;;;4990737;28;20978;-54
2022/10/12 13:59:22;;;;;;;524.33;376.03;;;;;;;;;;4992013;28;20240;-54
2022/10/12 14:01:53;;;;;;;385.38;307.90;;;;;;;;;;5002866;28;20222;-54